createdAt,value
2022-10-23T00:00:56.902Z,10.20
2022-10-23T00:03:23.509Z,10.23
2022-10-23T00:05:50.850Z,10.35
2022-10-23T00:08:17.603Z,9.60
2022-10-23T00:10:45.030Z,10.88
2022-10-23T00:13:11.755Z,9.32
2022-10-23T00:15:39.123Z,10.50
2022-10-23T00:18:05.917Z,10.43
2022-10-23T00:20:33.296Z,10.48
2022-10-23T00:23:00.060Z,10.05
2022-10-23T00:25:27.355Z,9.73
2022-10-23T00:27:53.933Z,10.30
2022-10-23T00:30:21.411Z,11.70
2022-10-23T00:32:48.075Z,10.68
2022-10-23T00:35:15.595Z,10.98
2022-10-23T00:37:42.436Z,10.82
2022-10-23T00:40:10.604Z,10.65
2022-10-23T00:42:37.328Z,10.50
2022-10-23T00:45:15.853Z,9.95
2022-10-23T00:47:42.773Z,9.65
2022-10-23T00:50:10.168Z,9.20
2022-10-23T00:52:44.309Z,9.82
2022-10-23T00:55:12.284Z,10.50
2022-10-23T00:57:43.056Z,10.20
2022-10-23T01:00:15.292Z,10.50
2022-10-23T01:02:42.527Z,10.55
2022-10-23T01:05:10.592Z,10.00
2022-10-23T01:07:47.756Z,9.10
2022-10-23T01:10:57.545Z,8.95
2022-10-23T01:13:41.205Z,10.55
2022-10-23T01:16:18.811Z,9.93
2022-10-23T01:19:00.441Z,8.98
2022-10-23T01:21:58.378Z,10.90
2022-10-23T01:24:58.078Z,10.20
2022-10-23T01:27:34.191Z,10.25
2022-10-23T01:30:07.447Z,9.45
2022-10-23T01:33:05.086Z,9.75
2022-10-23T01:35:43.224Z,10.48
2022-10-23T01:38:16.490Z,10.10
2022-10-23T01:41:03.655Z,10.07
2022-10-23T01:43:43.557Z,10.38
2022-10-23T01:46:16.250Z,10.63
2022-10-23T01:48:52.389Z,7.25
2022-10-23T01:51:23.027Z,9.52
2022-10-23T01:53:55.143Z,10.25
2022-10-23T01:56:27.832Z,10.38
2022-10-23T01:58:57.599Z,10.43
2022-10-23T02:01:29.722Z,9.95
2022-10-23T02:06:29.964Z,9.10
2022-10-23T02:08:57.012Z,9.40
2022-10-23T02:11:24.425Z,10.00
2022-10-23T02:14:01.853Z,10.60
2022-10-23T02:16:44.377Z,9.45
2022-10-23T02:19:59.154Z,10.02
2022-10-23T02:22:34.717Z,9.52
2022-10-23T02:25:20.123Z,11.45
2022-10-23T02:27:55.017Z,8.88
2022-10-23T02:30:25.149Z,9.88
2022-10-23T02:33:07.601Z,9.48
2022-10-23T02:35:35.306Z,9.90
2022-10-23T02:38:35.097Z,10.63
2022-10-23T02:41:17.878Z,9.13
2022-10-23T02:44:16.399Z,9.15
2022-10-23T02:46:51.190Z,8.85
2022-10-23T02:49:32.762Z,8.75
2022-10-23T02:52:08.340Z,9.30
2022-10-23T02:55:05.055Z,9.57
2022-10-23T02:58:08.022Z,8.10
2022-10-23T03:00:45.771Z,8.23
2022-10-23T03:03:22.056Z,9.23
2022-10-23T03:05:49.412Z,8.32
2022-10-23T03:08:16.135Z,8.25
2022-10-23T03:10:43.821Z,7.55
2022-10-23T03:13:11.290Z,8.05
2022-10-23T03:15:41.987Z,7.38
2022-10-23T03:18:12.336Z,7.93
2022-10-23T03:20:41.180Z,7.30
2022-10-23T03:23:11.499Z,7.57
2022-10-23T03:25:38.744Z,7.75
2022-10-23T03:28:05.497Z,7.18
2022-10-23T03:30:35.120Z,6.75
2022-10-23T03:33:01.731Z,7.43
2022-10-23T03:35:29.121Z,7.57
2022-10-23T03:37:55.844Z,6.30
2022-10-23T03:40:25.380Z,6.38
2022-10-23T03:42:52.409Z,7.32
2022-10-23T03:45:20.225Z,6.70
2022-10-23T03:47:48.593Z,7.25
2022-10-23T03:50:16.086Z,6.55
2022-10-23T03:52:43.005Z,6.45
2022-10-23T03:55:13.043Z,6.63
2022-10-23T03:57:39.809Z,6.97
2022-10-23T04:00:07.893Z,6.80
2022-10-23T04:02:43.753Z,6.95
2022-10-23T04:05:12.385Z,6.75
2022-10-23T04:07:42.160Z,6.32
2022-10-23T04:10:10.735Z,5.95
2022-10-23T04:12:37.438Z,5.15
2022-10-23T04:15:06.633Z,5.57
2022-10-23T04:17:33.956Z,5.82
2022-10-23T04:20:01.302Z,5.55
2022-10-23T04:22:28.591Z,4.75
2022-10-23T04:24:56.111Z,6.35
2022-10-23T04:27:23.327Z,5.63
2022-10-23T04:29:52.353Z,5.07
2022-10-23T04:32:21.087Z,5.43
2022-10-23T04:34:48.079Z,5.43
2022-10-23T04:37:14.716Z,5.35
2022-10-23T04:39:41.959Z,5.85
2022-10-23T04:42:13.011Z,5.35
2022-10-23T04:44:40.587Z,5.20
2022-10-23T04:47:07.772Z,5.13
2022-10-23T04:49:42.647Z,4.40
2022-10-23T04:52:35.307Z,4.88
2022-10-23T04:55:22.720Z,4.72
2022-10-23T04:58:06.757Z,4.93
2022-10-23T05:00:34.317Z,5.53
2022-10-23T05:03:01.372Z,4.60
2022-10-23T05:05:34.844Z,4.68
2022-10-23T05:08:06.577Z,5.32
2022-10-23T05:10:59.345Z,4.63
2022-10-23T05:13:26.434Z,5.07
2022-10-23T05:15:53.363Z,4.75
2022-10-23T05:18:34.321Z,4.72
2022-10-23T05:21:10.502Z,5.18
2022-10-23T05:23:43.083Z,5.30
2022-10-23T05:26:09.792Z,4.57
2022-10-23T05:28:38.729Z,4.38
2022-10-23T05:31:06.410Z,4.80
2022-10-23T05:33:37.435Z,4.13
2022-10-23T05:36:05.572Z,4.22
2022-10-23T05:38:35.869Z,4.35
2022-10-23T05:41:10.154Z,3.63
2022-10-23T05:43:37.926Z,3.95
2022-10-23T05:46:23.634Z,3.92
2022-10-23T05:49:14.352Z,3.78
2022-10-23T05:51:52.487Z,4.45
2022-10-23T05:54:34.918Z,3.05
2022-10-23T05:57:21.068Z,4.50
2022-10-23T05:59:50.868Z,6.60
2022-10-23T06:02:40.197Z,4.88
2022-10-23T06:08:19.632Z,4.10
2022-10-23T06:10:49.176Z,4.60
2022-10-23T06:13:16.641Z,5.93
2022-10-23T06:15:43.563Z,4.80
2022-10-23T06:18:18.674Z,4.43
2022-10-23T06:20:54.828Z,4.15
2022-10-23T06:23:25.508Z,5.40
2022-10-23T06:26:21.414Z,5.53
2022-10-23T06:28:56.268Z,4.32
2022-10-23T06:31:27.653Z,5.00
2022-10-23T06:33:58.101Z,6.25
2022-10-23T06:36:26.038Z,4.60
2022-10-23T06:41:46.761Z,4.03
2022-10-23T06:44:36.958Z,4.38
2022-10-23T06:47:10.711Z,9.82
2022-10-23T06:50:04.673Z,4.63
2022-10-23T06:52:46.496Z,4.35
2022-10-23T06:55:17.631Z,5.53
2022-10-23T06:57:45.151Z,5.07
2022-10-23T07:00:12.969Z,8.02
2022-10-23T07:02:48.201Z,4.95
2022-10-23T07:05:15.125Z,7.07
2022-10-23T07:07:43.502Z,5.95
2022-10-23T07:10:11.690Z,7.82
2022-10-23T07:12:44.540Z,4.72
2022-10-23T07:15:30.338Z,5.55
2022-10-23T07:17:58.328Z,3.88
2022-10-23T07:20:28.684Z,5.53
2022-10-23T07:22:56.960Z,4.65
2022-10-23T07:25:30.371Z,6.78
2022-10-23T07:28:00.471Z,7.00
2022-10-23T07:30:30.308Z,7.50
2022-10-23T07:32:59.298Z,8.15
2022-10-23T07:35:46.032Z,7.57
2022-10-23T07:38:19.816Z,7.40
2022-10-23T07:40:51.912Z,10.25
2022-10-23T07:43:21.222Z,10.25
2022-10-23T07:45:49.020Z,5.00
2022-10-23T07:48:24.142Z,5.97
2022-10-23T07:51:01.014Z,4.13
2022-10-23T07:53:29.033Z,4.03
2022-10-23T07:56:02.709Z,4.53
2022-10-23T07:58:53.975Z,3.47
2022-10-23T08:01:32.414Z,4.15
2022-10-23T08:04:00.897Z,4.28
2022-10-23T08:06:28.304Z,3.17
2022-10-23T08:08:55.778Z,4.90
2022-10-23T08:11:29.801Z,4.25
2022-10-23T08:13:58.765Z,3.88
2022-10-23T08:16:28.346Z,2.83
2022-10-23T08:19:37.556Z,2.95
2022-10-23T08:22:05.184Z,2.60
2022-10-23T08:24:58.708Z,4.22
2022-10-23T08:28:03.054Z,4.05
2022-10-23T08:30:42.171Z,3.03
2022-10-23T08:33:10.031Z,2.80
2022-10-23T08:35:38.281Z,2.00
2022-10-23T08:38:07.539Z,2.55
2022-10-23T08:40:53.024Z,2.90
2022-10-23T08:43:47.727Z,2.53
2022-10-23T08:46:31.569Z,3.85
2022-10-23T08:49:42.450Z,3.38
2022-10-23T08:52:40.353Z,3.67
2022-10-23T08:55:33.612Z,5.55
2022-10-23T08:58:32.149Z,4.15
2022-10-23T09:00:59.704Z,6.03
2022-10-23T09:03:29.409Z,5.90
2022-10-23T09:06:16.560Z,8.73
2022-10-23T09:09:14.503Z,8.18
2022-10-23T09:12:41.998Z,7.45
2022-10-23T09:15:34.895Z,4.28
2022-10-23T09:20:36.188Z,2.90
2022-10-23T09:23:26.080Z,2.40
2022-10-23T09:26:00.456Z,4.07
2022-10-23T09:31:53.501Z,3.85
2022-10-23T09:34:33.619Z,3.30
2022-10-23T09:37:22.597Z,2.97
2022-10-23T09:39:49.889Z,2.70
2022-10-23T09:45:42.519Z,2.70
2022-10-23T09:52:37.127Z,2.55
2022-10-23T09:55:20.351Z,2.42
2022-10-23T09:58:46.991Z,2.83
2022-10-23T10:01:31.317Z,2.85
2022-10-23T10:04:34.027Z,2.08
2022-10-23T10:10:05.833Z,2.30
2022-10-23T10:12:49.780Z,2.30
2022-10-23T10:15:27.416Z,2.55
2022-10-23T10:18:56.788Z,2.45
2022-10-23T10:21:32.504Z,2.05
2022-10-23T10:24:09.468Z,1.85
2022-10-23T10:27:03.774Z,2.20
2022-10-23T10:33:42.068Z,2.13
2022-10-23T10:39:01.325Z,1.90
2022-10-23T10:41:43.156Z,1.95
2022-10-23T10:44:35.209Z,2.00
2022-10-23T10:47:21.256Z,2.50
2022-10-23T10:50:15.267Z,2.30
2022-10-23T10:53:25.937Z,2.28
2022-10-23T10:55:56.799Z,2.80
2022-10-23T10:58:33.229Z,2.35
2022-10-23T11:01:08.449Z,2.20
2022-10-23T11:03:49.214Z,2.53
2022-10-23T11:06:21.477Z,1.80
2022-10-23T11:08:57.929Z,1.73
2022-10-23T11:11:37.189Z,1.52
2022-10-23T11:14:05.931Z,1.90
2022-10-23T11:16:39.718Z,1.90
2022-10-23T11:19:14.178Z,1.98
2022-10-23T11:21:46.143Z,2.28
2022-10-23T11:24:49.531Z,1.83
2022-10-23T11:27:41.954Z,2.50
2022-10-23T11:30:22.714Z,4.03
2022-10-23T11:33:21.382Z,4.38
2022-10-23T11:36:14.969Z,2.28
2022-10-23T11:38:45.746Z,2.33
2022-10-23T11:41:26.962Z,2.40
2022-10-23T11:44:01.835Z,2.20
2022-10-23T11:46:31.687Z,1.90
2022-10-23T11:49:02.618Z,2.35
2022-10-23T11:51:38.068Z,2.35
2022-10-23T11:54:24.815Z,2.35
2022-10-23T11:57:13.036Z,2.67
2022-10-23T11:59:46.040Z,1.58
2022-10-23T12:02:59.097Z,1.77
2022-10-23T12:05:42.896Z,2.20
2022-10-23T12:08:27.231Z,2.13
2022-10-23T12:13:55.258Z,2.10
2022-10-23T12:16:46.316Z,1.60
2022-10-23T12:20:12.851Z,2.30
2022-10-23T12:23:16.643Z,2.47
2022-10-23T12:26:47.759Z,1.83
2022-10-23T12:29:47.046Z,1.92
2022-10-23T12:32:37.480Z,3.13
2022-10-23T12:35:24.012Z,2.80
2022-10-23T12:38:20.370Z,2.55
2022-10-23T12:40:53.122Z,2.08
2022-10-23T12:43:36.622Z,2.58
2022-10-23T12:46:26.194Z,2.33
2022-10-23T12:48:56.938Z,2.15
2022-10-23T12:51:28.252Z,2.20
2022-10-23T12:53:55.795Z,2.25
2022-10-23T12:56:24.264Z,1.75
2022-10-23T12:59:00.863Z,2.10
2022-10-23T13:01:34.479Z,2.00
2022-10-23T13:04:23.434Z,1.95
2022-10-23T13:06:51.994Z,2.25
2022-10-23T13:09:28.709Z,2.15
2022-10-23T13:12:28.440Z,1.90
2022-10-23T13:15:06.199Z,1.70
2022-10-23T13:17:41.257Z,2.28
2022-10-23T13:20:17.217Z,1.95
2022-10-23T13:22:46.766Z,2.33
2022-10-23T13:25:28.759Z,2.55
2022-10-23T13:28:17.649Z,3.00
2022-10-23T13:30:48.119Z,2.42
2022-10-23T13:33:21.457Z,2.60
2022-10-23T13:38:51.830Z,2.58
2022-10-23T13:41:19.761Z,2.42
2022-10-23T13:43:48.316Z,1.98
2022-10-23T13:46:20.842Z,2.38
2022-10-23T13:48:48.332Z,2.28
2022-10-23T13:51:16.491Z,2.65
2022-10-23T13:53:43.795Z,3.28
2022-10-23T13:56:12.684Z,2.90
2022-10-23T13:58:40.078Z,3.90
2022-10-23T14:01:12.672Z,3.10
2022-10-23T14:06:06.772Z,2.92
2022-10-23T14:08:33.698Z,3.25
2022-10-23T14:11:00.369Z,3.10
2022-10-23T14:13:27.814Z,2.45
2022-10-23T14:15:55.002Z,2.70
2022-10-23T14:18:22.623Z,3.03
2022-10-23T14:20:49.339Z,11.43
2022-10-23T14:23:16.636Z,7.72
2022-10-23T14:25:43.719Z,7.38
2022-10-23T14:28:10.972Z,6.75
2022-10-23T14:30:37.734Z,5.07
2022-10-23T14:33:05.140Z,4.93
2022-10-23T14:35:31.703Z,4.07
2022-10-23T14:37:58.939Z,5.28
2022-10-23T14:40:26.110Z,4.22
2022-10-23T14:42:53.458Z,4.30
2022-10-23T14:45:20.094Z,5.43
2022-10-23T14:47:47.454Z,4.20
2022-10-23T14:50:15.177Z,3.28
2022-10-23T14:52:42.442Z,4.22
2022-10-23T14:55:09.335Z,3.60
2022-10-23T14:57:37.697Z,2.85
2022-10-23T15:00:08.526Z,2.95
2022-10-23T15:02:35.834Z,2.58
2022-10-23T15:05:02.976Z,3.25
2022-10-23T15:07:30.238Z,3.08
2022-10-23T15:09:56.893Z,3.17
2022-10-23T15:12:24.759Z,3.22
2022-10-23T15:14:51.331Z,4.30
2022-10-23T15:17:18.625Z,6.70
2022-10-23T15:19:45.215Z,2.92
2022-10-23T15:22:12.491Z,3.20
2022-10-23T15:24:39.433Z,3.50
2022-10-23T15:27:06.462Z,3.13
2022-10-23T15:29:33.107Z,3.58
2022-10-23T15:32:01.927Z,4.45
2022-10-23T15:34:29.679Z,4.05
2022-10-23T15:36:57.664Z,4.38
2022-10-23T15:39:26.623Z,5.32
2022-10-23T15:41:56.388Z,7.75
2022-10-23T15:44:25.538Z,9.20
2022-10-23T15:46:53.128Z,4.80
2022-10-23T15:49:20.099Z,4.85
2022-10-23T15:51:47.489Z,4.30
2022-10-23T15:54:16.903Z,4.75
2022-10-23T15:56:45.515Z,5.50
2022-10-23T15:59:12.637Z,5.05
2022-10-23T16:01:39.510Z,5.43
2022-10-23T16:04:06.749Z,6.80
2022-10-23T16:06:33.456Z,6.85
2022-10-23T16:09:00.478Z,6.53
2022-10-23T16:11:33.749Z,7.25
2022-10-23T16:14:01.541Z,7.03
2022-10-23T16:16:28.424Z,8.00
2022-10-23T16:18:55.776Z,7.30
2022-10-23T16:21:26.472Z,7.50
2022-10-23T16:23:55.132Z,7.60
2022-10-23T16:26:22.543Z,8.48
2022-10-23T16:28:56.597Z,7.85
2022-10-23T16:31:24.238Z,6.35
2022-10-23T16:33:51.961Z,6.78
2022-10-23T16:36:19.866Z,6.20
2022-10-23T16:39:19.767Z,6.85
2022-10-23T16:42:05.816Z,6.00
2022-10-23T16:44:51.277Z,6.05
2022-10-23T16:47:18.584Z,7.50
2022-10-23T16:49:45.213Z,6.22
2022-10-23T16:52:12.128Z,7.45
2022-10-23T16:54:38.830Z,8.15
2022-10-23T16:57:06.096Z,7.75
2022-10-23T16:59:32.696Z,7.05
2022-10-23T17:01:59.559Z,5.78
2022-10-23T17:04:26.274Z,5.55
2022-10-23T17:06:52.927Z,6.20
2022-10-23T17:09:19.694Z,5.25
2022-10-23T17:11:46.566Z,6.20
2022-10-23T17:14:18.574Z,5.88
2022-10-23T17:16:50.615Z,6.32
2022-10-23T17:19:40.188Z,7.63
2022-10-23T17:22:10.409Z,6.03
2022-10-23T17:24:41.651Z,10.48
2022-10-23T17:27:08.999Z,7.90
2022-10-23T17:29:35.938Z,7.72
2022-10-23T17:32:03.358Z,6.82
2022-10-23T17:34:30.006Z,10.15
2022-10-23T17:36:57.337Z,6.90
2022-10-23T17:39:28.700Z,6.55
2022-10-23T17:41:56.446Z,7.18
2022-10-23T17:44:23.394Z,6.30
2022-10-23T17:46:54.657Z,6.28
2022-10-23T17:49:23.335Z,5.20
2022-10-23T17:51:53.191Z,6.93
2022-10-23T17:54:19.898Z,6.32
2022-10-23T17:56:47.169Z,6.18
2022-10-23T17:59:16.146Z,6.05
2022-10-23T18:01:48.395Z,5.55
2022-10-23T18:04:17.611Z,5.30
2022-10-23T18:06:47.984Z,5.10
2022-10-23T18:09:15.199Z,5.88
2022-10-23T18:11:47.015Z,6.07
2022-10-23T18:14:17.158Z,4.45
2022-10-23T18:16:46.149Z,4.07
2022-10-23T18:19:14.260Z,4.45
2022-10-23T18:21:41.917Z,4.30
2022-10-23T18:24:08.639Z,4.75
2022-10-23T18:26:37.869Z,4.10
2022-10-23T18:29:07.498Z,4.13
2022-10-23T18:31:37.587Z,4.32
2022-10-23T18:34:07.477Z,4.10
2022-10-23T18:36:39.969Z,4.32
2022-10-23T18:39:08.689Z,5.40
2022-10-23T18:41:38.568Z,4.43
2022-10-23T18:44:06.010Z,5.00
2022-10-23T18:46:33.500Z,4.47
2022-10-23T18:49:00.185Z,4.22
2022-10-23T18:51:30.651Z,4.68
2022-10-23T18:53:59.929Z,5.05
2022-10-23T18:56:28.021Z,4.75
2022-10-23T18:59:00.067Z,5.05
2022-10-23T19:01:28.850Z,4.93
2022-10-23T19:03:57.588Z,4.53
2022-10-23T19:06:25.502Z,4.15
2022-10-23T19:08:52.298Z,3.50
2022-10-23T19:11:22.219Z,3.30
2022-10-23T19:13:49.250Z,3.42
2022-10-23T19:16:27.658Z,3.22
2022-10-23T19:18:58.658Z,2.95
2022-10-23T19:21:31.864Z,3.35
2022-10-23T19:24:07.115Z,7.97
2022-10-23T19:29:55.227Z,4.40
2022-10-23T19:32:24.996Z,3.20
2022-10-23T19:34:51.672Z,2.85
2022-10-23T19:37:18.402Z,2.30
2022-10-23T19:39:45.016Z,2.28
2022-10-23T19:42:12.280Z,1.60
2022-10-23T19:44:38.853Z,1.98
2022-10-23T19:47:05.865Z,1.73
2022-10-23T19:49:32.617Z,2.08
2022-10-23T19:51:59.553Z,2.03
2022-10-23T19:54:26.157Z,2.63
2022-10-23T19:56:53.080Z,2.80
2022-10-23T19:59:19.680Z,2.03
2022-10-23T20:01:49.029Z,2.10
2022-10-23T20:04:19.774Z,2.15
2022-10-23T20:06:47.523Z,2.35
2022-10-23T20:09:14.272Z,2.00
2022-10-23T20:11:41.497Z,2.10
2022-10-23T20:14:08.397Z,2.55
2022-10-23T20:16:37.749Z,2.00
2022-10-23T20:19:06.995Z,2.03
2022-10-23T20:21:38.833Z,2.15
2022-10-23T20:24:06.020Z,2.40
2022-10-23T20:26:33.819Z,2.60
2022-10-23T20:29:00.430Z,2.90
2022-10-23T20:31:28.128Z,3.10
2022-10-23T20:33:56.177Z,3.03
2022-10-23T20:36:28.201Z,2.88
2022-10-23T20:38:55.734Z,2.33
2022-10-23T20:41:25.100Z,2.33
2022-10-23T20:43:51.859Z,2.88
2022-10-23T20:46:19.239Z,2.42
2022-10-23T20:48:45.895Z,3.15
2022-10-23T20:51:18.774Z,2.13
2022-10-23T20:56:17.997Z,2.65
2022-10-23T20:58:45.259Z,3.10
2022-10-23T21:01:16.082Z,2.45
2022-10-23T21:03:43.599Z,2.70
2022-10-23T21:06:15.419Z,2.83
2022-10-23T21:08:42.594Z,3.42
2022-10-23T21:11:14.759Z,3.00
2022-10-23T21:13:43.039Z,3.13
2022-10-23T21:16:22.564Z,3.25
2022-10-23T21:18:51.889Z,3.42
2022-10-23T21:21:21.116Z,3.00
2022-10-23T21:23:49.860Z,2.75
2022-10-23T21:26:18.018Z,3.22
2022-10-23T21:28:55.715Z,3.28
2022-10-23T21:31:32.752Z,2.78
2022-10-23T21:33:59.802Z,3.00
2022-10-23T21:36:27.674Z,2.75
2022-10-23T21:38:57.445Z,3.03
2022-10-23T21:41:33.201Z,2.75
2022-10-23T21:44:02.778Z,3.83
2022-10-23T21:46:31.562Z,3.17
2022-10-23T21:49:01.854Z,3.03
2022-10-23T21:51:31.753Z,3.40
2022-10-23T21:53:58.969Z,3.78
2022-10-23T21:56:29.002Z,3.53
2022-10-23T21:58:57.006Z,2.70
2022-10-23T22:01:24.908Z,3.35
2022-10-23T22:03:51.716Z,2.88
2022-10-23T22:06:28.826Z,3.10
2022-10-23T22:08:57.546Z,3.03
2022-10-23T22:11:25.653Z,3.35
2022-10-23T22:13:52.767Z,2.97
2022-10-23T22:16:20.587Z,3.35
2022-10-23T22:18:47.944Z,3.72
2022-10-23T22:21:20.351Z,3.50
2022-10-23T22:23:49.108Z,3.67
2022-10-23T22:26:23.388Z,3.47
2022-10-23T22:28:52.027Z,3.72
2022-10-23T22:31:22.777Z,3.67
2022-10-23T22:33:49.904Z,3.88
2022-10-23T22:36:17.477Z,3.60
2022-10-23T22:38:44.607Z,3.42
2022-10-23T22:41:12.339Z,3.50
2022-10-23T22:43:39.077Z,3.88
2022-10-23T22:46:12.000Z,3.00
2022-10-23T22:48:39.280Z,3.80
2022-10-23T22:51:09.059Z,3.90
2022-10-23T22:53:36.140Z,3.35
2022-10-23T22:56:07.763Z,3.42
2022-10-23T22:58:34.969Z,4.13
2022-10-23T23:01:06.855Z,3.10
2022-10-23T23:03:36.150Z,3.72
2022-10-23T23:06:04.705Z,2.90
2022-10-23T23:08:31.385Z,3.03
2022-10-23T23:10:59.172Z,3.35
2022-10-23T23:13:26.474Z,3.20
2022-10-23T23:15:54.357Z,3.03
2022-10-23T23:18:21.634Z,3.97
2022-10-23T23:20:49.142Z,3.20
2022-10-23T23:23:16.219Z,3.55
2022-10-23T23:25:46.394Z,3.28
2022-10-23T23:28:14.443Z,3.50
2022-10-23T23:30:43.556Z,2.95
2022-10-23T23:33:11.026Z,3.65
2022-10-23T23:35:45.863Z,3.28
2022-10-23T23:38:13.212Z,3.70
2022-10-23T23:40:40.683Z,3.33
2022-10-23T23:43:08.136Z,3.38
2022-10-23T23:45:35.366Z,3.33
2022-10-23T23:48:02.003Z,3.88
2022-10-23T23:50:28.999Z,3.00
2022-10-23T23:52:55.674Z,3.40
2022-10-23T23:55:23.055Z,3.10
2022-10-23T23:57:49.719Z,3.00
